createdAt,value
2023-05-09T00:00:19.748Z,15.48
2023-05-09T00:01:19.955Z,15.54
2023-05-09T00:02:20.126Z,15.46
2023-05-09T00:03:20.347Z,15.49
2023-05-09T00:04:20.489Z,15.51
2023-05-09T00:05:21.861Z,15.48
2023-05-09T00:06:20.890Z,15.39
2023-05-09T00:07:21.040Z,15.49
2023-05-09T00:08:21.908Z,15.45
2023-05-09T00:09:21.444Z,15.46
2023-05-09T00:10:21.607Z,15.43
2023-05-09T00:11:22.368Z,15.51
2023-05-09T00:12:22.006Z,15.49
2023-05-09T00:13:22.344Z,15.46
2023-05-09T00:14:22.413Z,15.48
2023-05-09T00:15:24.248Z,15.45
2023-05-09T00:16:23.431Z,15.49
2023-05-09T00:17:22.983Z,15.54
2023-05-09T00:18:23.146Z,15.60
2023-05-09T00:19:23.870Z,15.59
2023-05-09T00:20:23.926Z,15.60
2023-05-09T00:21:24.362Z,15.56
2023-05-09T00:22:25.374Z,15.48
2023-05-09T00:23:24.919Z,15.56
2023-05-09T00:24:24.905Z,15.52
2023-05-09T00:25:24.392Z,15.63
2023-05-09T00:26:25.398Z,15.56
2023-05-09T00:27:24.764Z,15.59
2023-05-09T00:28:25.971Z,15.52
2023-05-09T00:29:25.117Z,15.57
2023-05-09T00:30:25.865Z,15.59
2023-05-09T00:31:25.524Z,15.54
2023-05-09T00:32:26.384Z,15.51
2023-05-09T00:33:25.903Z,15.57
2023-05-09T00:34:26.066Z,15.57
2023-05-09T00:35:26.216Z,15.54
2023-05-09T00:36:26.394Z,15.66
2023-05-09T00:37:26.549Z,15.59
2023-05-09T00:38:27.868Z,15.57
2023-05-09T00:39:26.893Z,15.61
2023-05-09T00:40:28.390Z,15.59
2023-05-09T00:41:27.159Z,15.61
2023-05-09T00:42:27.310Z,15.60
2023-05-09T00:43:27.608Z,15.51
2023-05-09T00:44:28.418Z,15.56
2023-05-09T00:45:27.807Z,15.46
2023-05-09T00:46:28.024Z,15.48
2023-05-09T00:47:29.908Z,15.52
2023-05-09T00:48:28.452Z,15.59
2023-05-09T00:49:28.618Z,15.45
2023-05-09T00:50:28.776Z,15.51
2023-05-09T00:51:29.875Z,15.56
2023-05-09T00:52:29.923Z,15.59
2023-05-09T00:53:29.337Z,15.46
2023-05-09T00:54:29.499Z,15.46
2023-05-09T00:55:29.658Z,15.33
2023-05-09T00:56:29.805Z,15.45
2023-05-09T00:57:29.959Z,15.39
2023-05-09T00:58:30.993Z,15.38
2023-05-09T00:59:30.266Z,15.43
2023-05-09T01:00:30.434Z,15.43
2023-05-09T01:01:31.422Z,15.27
2023-05-09T01:02:30.748Z,15.33
2023-05-09T01:03:32.031Z,15.30
2023-05-09T01:04:31.115Z,15.42
2023-05-09T01:05:31.309Z,15.42
2023-05-09T01:06:31.484Z,15.31
2023-05-09T01:07:33.377Z,15.36
2023-05-09T01:08:31.869Z,15.24
2023-05-09T01:09:32.930Z,15.24
2023-05-09T01:10:32.221Z,15.27
2023-05-09T01:11:32.429Z,15.09
2023-05-09T01:12:32.576Z,15.19
2023-05-09T01:13:32.736Z,15.17
2023-05-09T01:14:34.493Z,15.15
2023-05-09T01:15:33.109Z,15.17
2023-05-09T01:16:33.325Z,15.13
2023-05-09T01:17:34.894Z,15.11
2023-05-09T01:18:34.412Z,15.01
2023-05-09T01:19:34.885Z,15.06
2023-05-09T01:20:34.029Z,15.09
2023-05-09T01:21:34.199Z,15.08
2023-05-09T01:22:34.386Z,14.98
2023-05-09T01:23:34.533Z,15.09
2023-05-09T01:24:34.705Z,15.15
2023-05-09T01:25:34.881Z,15.06
2023-05-09T01:26:35.892Z,15.13
2023-05-09T01:27:35.284Z,15.05
2023-05-09T01:28:35.926Z,15.05
2023-05-09T01:29:35.585Z,15.03
2023-05-09T01:30:35.875Z,14.93
2023-05-09T01:31:36.027Z,15.05
2023-05-09T01:32:36.265Z,14.93
2023-05-09T01:33:36.426Z,15.03
2023-05-09T01:34:37.888Z,14.95
2023-05-09T01:35:36.760Z,14.94
2023-05-09T01:36:37.402Z,14.99
2023-05-09T01:37:39.778Z,14.90
2023-05-09T01:38:37.440Z,14.95
2023-05-09T01:39:37.467Z,14.93
2023-05-09T01:40:37.610Z,14.87
2023-05-09T01:41:37.739Z,14.80
2023-05-09T01:42:37.922Z,14.86
2023-05-09T01:43:38.942Z,14.86
2023-05-09T01:44:38.289Z,14.91
2023-05-09T01:45:38.598Z,14.86
2023-05-09T01:46:39.480Z,14.80
2023-05-09T01:47:38.794Z,14.84
2023-05-09T01:48:39.938Z,14.87
2023-05-09T01:49:39.182Z,14.86
2023-05-09T01:50:39.894Z,14.83
2023-05-09T01:51:40.342Z,14.80
2023-05-09T01:52:39.947Z,14.83
2023-05-09T01:53:40.433Z,14.81
2023-05-09T01:54:40.932Z,14.65
2023-05-09T01:55:40.963Z,14.68
2023-05-09T01:56:40.467Z,14.74
2023-05-09T01:57:40.641Z,14.74
2023-05-09T01:58:40.806Z,14.75
2023-05-09T01:59:40.968Z,14.71
2023-05-09T02:00:41.338Z,14.74
2023-05-09T02:01:41.311Z,14.71
2023-05-09T02:02:41.547Z,14.74
2023-05-09T02:03:42.465Z,14.69
2023-05-09T02:04:43.401Z,14.71
2023-05-09T02:05:42.044Z,14.69
2023-05-09T02:06:42.940Z,14.65
2023-05-09T02:07:42.904Z,14.65
2023-05-09T02:08:43.436Z,14.64
2023-05-09T02:09:43.431Z,14.72
2023-05-09T02:10:42.949Z,14.61
2023-05-09T02:11:43.932Z,14.71
2023-05-09T02:12:43.366Z,14.64
2023-05-09T02:13:44.519Z,14.68
2023-05-09T02:14:44.676Z,14.62
2023-05-09T02:15:43.853Z,14.64
2023-05-09T02:16:44.256Z,14.56
2023-05-09T02:17:44.991Z,14.67
2023-05-09T02:18:44.381Z,14.68
2023-05-09T02:19:44.515Z,14.64
2023-05-09T02:20:45.476Z,14.62
2023-05-09T02:21:45.442Z,14.61
2023-05-09T02:22:46.399Z,14.62
2023-05-09T02:23:45.258Z,14.60
2023-05-09T02:24:45.404Z,14.56
2023-05-09T02:25:45.580Z,14.62
2023-05-09T02:26:45.728Z,14.52
2023-05-09T02:27:45.864Z,14.57
2023-05-09T02:28:46.949Z,14.57
2023-05-09T02:29:46.950Z,14.60
2023-05-09T02:30:46.458Z,14.57
2023-05-09T02:31:46.474Z,14.52
2023-05-09T02:32:46.804Z,14.57
2023-05-09T02:33:47.406Z,14.56
2023-05-09T02:34:47.005Z,14.60
2023-05-09T02:35:48.922Z,14.56
2023-05-09T02:36:47.276Z,14.53
2023-05-09T02:37:48.398Z,14.50
2023-05-09T02:38:47.618Z,14.56
2023-05-09T02:39:47.740Z,14.46
2023-05-09T02:40:50.322Z,14.46
2023-05-09T02:41:48.065Z,14.43
2023-05-09T02:42:48.364Z,14.43
2023-05-09T02:43:49.405Z,14.49
2023-05-09T02:44:49.411Z,14.46
2023-05-09T02:45:48.807Z,14.44
2023-05-09T02:46:49.959Z,14.35
2023-05-09T02:47:49.347Z,14.42
2023-05-09T02:48:49.410Z,14.38
2023-05-09T02:49:51.416Z,14.28
2023-05-09T02:50:50.299Z,14.39
2023-05-09T02:51:50.907Z,14.29
2023-05-09T02:52:50.914Z,14.37
2023-05-09T02:53:50.793Z,14.35
2023-05-09T02:54:50.423Z,14.39
2023-05-09T02:55:50.564Z,14.37
2023-05-09T02:56:50.713Z,14.27
2023-05-09T02:57:58.908Z,14.38
2023-05-09T02:58:52.950Z,14.27
2023-05-09T02:59:51.157Z,14.37
2023-05-09T03:00:51.329Z,14.32
2023-05-09T03:01:51.519Z,14.35
2023-05-09T03:02:51.756Z,14.28
2023-05-09T03:03:52.122Z,14.38
2023-05-09T03:04:52.093Z,14.37
2023-05-09T03:05:52.915Z,14.25
2023-05-09T03:06:52.447Z,14.29
2023-05-09T03:07:52.588Z,14.21
2023-05-09T03:08:52.723Z,14.27
2023-05-09T03:09:53.481Z,14.27
2023-05-09T03:10:53.918Z,14.25
2023-05-09T03:11:53.280Z,14.27
2023-05-09T03:12:53.499Z,14.37
2023-05-09T03:13:53.649Z,14.25
2023-05-09T03:14:54.418Z,14.24
2023-05-09T03:15:54.928Z,14.17
2023-05-09T03:16:54.919Z,14.29
2023-05-09T03:17:54.428Z,14.27
2023-05-09T03:18:54.704Z,14.21
2023-05-09T03:19:55.474Z,14.31
2023-05-09T03:20:55.483Z,14.21
2023-05-09T03:21:55.108Z,14.29
2023-05-09T03:22:55.273Z,14.34
2023-05-09T03:23:56.416Z,14.24
2023-05-09T03:24:55.558Z,14.34
2023-05-09T03:25:56.475Z,14.34
2023-05-09T03:26:55.886Z,14.39
2023-05-09T03:27:57.927Z,14.34
2023-05-09T03:28:56.142Z,14.31
2023-05-09T03:29:56.308Z,14.32
2023-05-09T03:30:56.443Z,14.43
2023-05-09T03:31:56.608Z,14.34
2023-05-09T03:32:58.456Z,14.34
2023-05-09T03:33:57.608Z,14.44
2023-05-09T03:34:57.194Z,14.50
2023-05-09T03:35:57.373Z,14.44
2023-05-09T03:36:57.501Z,14.38
2023-05-09T03:37:58.926Z,14.46
2023-05-09T03:38:58.479Z,14.43
2023-05-09T03:39:59.423Z,14.44
2023-05-09T03:40:58.163Z,14.46
2023-05-09T03:41:59.926Z,14.49
2023-05-09T03:42:58.541Z,14.50
2023-05-09T03:43:58.691Z,14.42
2023-05-09T03:44:58.850Z,14.50
2023-05-09T03:45:59.007Z,14.50
2023-05-09T03:47:00.061Z,14.46
2023-05-09T03:47:59.952Z,14.43
2023-05-09T03:49:00.542Z,14.57
2023-05-09T03:49:59.694Z,14.37
2023-05-09T03:51:00.472Z,14.46
2023-05-09T03:52:00.042Z,14.46
2023-05-09T03:53:00.258Z,14.37
2023-05-09T03:54:00.423Z,14.44
2023-05-09T03:55:00.618Z,14.56
2023-05-09T03:56:00.768Z,14.53
2023-05-09T03:57:00.934Z,14.49
2023-05-09T03:58:01.125Z,14.49
2023-05-09T03:59:01.280Z,14.54
2023-05-09T04:00:01.476Z,14.61
2023-05-09T04:01:02.475Z,14.57
2023-05-09T04:02:02.465Z,14.60
2023-05-09T04:03:02.063Z,14.61
2023-05-09T04:04:02.185Z,14.60
2023-05-09T04:05:02.510Z,14.69
2023-05-09T04:06:02.990Z,14.71
2023-05-09T04:07:02.773Z,14.68
2023-05-09T04:08:02.943Z,14.71
2023-05-09T04:09:03.107Z,14.69
2023-05-09T04:10:03.258Z,14.69
2023-05-09T04:11:03.521Z,14.81
2023-05-09T04:12:03.663Z,14.78
2023-05-09T04:13:03.924Z,14.80
2023-05-09T04:14:04.995Z,14.87
2023-05-09T04:15:04.129Z,14.88
2023-05-09T04:16:04.393Z,14.93
2023-05-09T04:17:04.593Z,14.94
2023-05-09T04:18:04.840Z,14.86
2023-05-09T04:19:05.985Z,14.90
2023-05-09T04:20:05.386Z,14.93
2023-05-09T04:21:05.972Z,14.91
2023-05-09T04:22:05.619Z,14.94
2023-05-09T04:23:05.770Z,15.06
2023-05-09T04:24:05.987Z,14.90
2023-05-09T04:25:06.123Z,15.02
2023-05-09T04:26:06.279Z,14.91
2023-05-09T04:27:06.978Z,14.99
2023-05-09T04:28:07.011Z,15.06
2023-05-09T04:29:06.804Z,15.06
2023-05-09T04:30:06.955Z,14.94
2023-05-09T04:31:07.562Z,15.05
2023-05-09T04:32:07.387Z,15.13
2023-05-09T04:33:08.474Z,14.95
2023-05-09T04:34:08.022Z,15.06
2023-05-09T04:35:07.818Z,15.08
2023-05-09T04:36:08.139Z,15.06
2023-05-09T04:37:09.945Z,15.23
2023-05-09T04:38:08.984Z,15.15
2023-05-09T04:39:09.492Z,15.11
2023-05-09T04:40:08.991Z,15.17
2023-05-09T04:41:10.458Z,15.21
2023-05-09T04:42:09.257Z,15.19
2023-05-09T04:43:09.393Z,15.26
2023-05-09T04:44:10.446Z,15.21
2023-05-09T04:45:09.689Z,15.27
2023-05-09T04:46:09.853Z,15.24
2023-05-09T04:47:10.050Z,15.36
2023-05-09T04:48:10.959Z,15.30
2023-05-09T04:49:11.002Z,15.30
2023-05-09T04:50:10.553Z,15.49
2023-05-09T04:51:10.861Z,15.33
2023-05-09T04:52:11.891Z,15.43
2023-05-09T04:53:10.990Z,15.43
2023-05-09T04:54:11.239Z,15.45
2023-05-09T04:55:12.020Z,15.51
2023-05-09T04:56:12.487Z,15.43
2023-05-09T04:57:18.107Z,15.33
2023-05-09T04:58:13.881Z,15.38
2023-05-09T04:59:12.501Z,15.56
2023-05-09T05:00:12.249Z,15.42
2023-05-09T05:01:12.563Z,15.39
2023-05-09T05:02:13.516Z,15.49
2023-05-09T05:03:12.778Z,15.48
2023-05-09T05:04:13.538Z,15.51
2023-05-09T05:05:13.155Z,15.48
2023-05-09T05:06:13.505Z,15.45
2023-05-09T05:07:13.492Z,15.43
2023-05-09T05:08:14.039Z,15.45
2023-05-09T05:09:13.849Z,15.52
2023-05-09T05:10:14.655Z,15.59
2023-05-09T05:11:15.991Z,15.63
2023-05-09T05:12:14.323Z,15.60
2023-05-09T05:13:14.544Z,15.70
2023-05-09T05:14:15.454Z,15.75
2023-05-09T05:15:17.090Z,15.72
2023-05-09T05:16:15.063Z,15.93
2023-05-09T05:17:16.003Z,16.03
2023-05-09T05:18:15.958Z,16.11
2023-05-09T05:19:16.497Z,16.03
2023-05-09T05:20:16.466Z,16.07
2023-05-09T05:21:15.955Z,16.12
2023-05-09T05:22:16.187Z,16.14
2023-05-09T05:23:16.330Z,16.12
2023-05-09T05:24:16.442Z,16.07
2023-05-09T05:25:17.955Z,16.09
2023-05-09T05:26:16.795Z,16.04
2023-05-09T05:27:19.494Z,16.14
2023-05-09T05:28:17.130Z,16.16
2023-05-09T05:29:18.006Z,16.09
2023-05-09T05:30:17.962Z,16.16
2023-05-09T05:31:18.037Z,16.14
2023-05-09T05:32:17.859Z,16.12
2023-05-09T05:33:17.999Z,16.11
2023-05-09T05:34:18.154Z,16.12
2023-05-09T05:35:18.997Z,16.22
2023-05-09T05:36:19.466Z,16.18
2023-05-09T05:37:18.900Z,16.07
2023-05-09T05:38:19.500Z,16.15
2023-05-09T05:39:19.151Z,16.15
2023-05-09T05:40:19.998Z,16.23
2023-05-09T05:41:19.515Z,16.16
2023-05-09T05:42:20.471Z,16.25
2023-05-09T05:43:20.346Z,16.42
2023-05-09T05:44:19.996Z,16.38
2023-05-09T05:45:20.956Z,16.56
2023-05-09T05:46:21.059Z,16.48
2023-05-09T05:47:20.585Z,16.63
2023-05-09T05:48:21.364Z,16.71
2023-05-09T05:49:21.477Z,16.67
2023-05-09T05:50:21.124Z,16.67
2023-05-09T05:51:22.019Z,16.75
2023-05-09T05:52:21.585Z,16.65
2023-05-09T05:53:21.600Z,16.49
2023-05-09T05:54:21.734Z,16.58
2023-05-09T05:55:21.888Z,16.55
2023-05-09T05:56:22.046Z,16.59
2023-05-09T05:57:22.510Z,16.62
2023-05-09T05:58:22.976Z,16.71
2023-05-09T05:59:22.628Z,16.65
2023-05-09T06:00:22.804Z,16.58
2023-05-09T06:01:22.948Z,16.73
2023-05-09T06:02:25.382Z,16.68
2023-05-09T06:03:23.290Z,16.73
2023-05-09T06:04:24.004Z,16.75
2023-05-09T06:05:23.649Z,16.74
2023-05-09T06:06:24.462Z,16.80
2023-05-09T06:07:24.491Z,16.93
2023-05-09T06:08:25.022Z,16.99
2023-05-09T06:09:24.253Z,16.93
2023-05-09T06:10:24.962Z,16.92
2023-05-09T06:11:25.580Z,16.99
2023-05-09T06:12:27.284Z,17.06
2023-05-09T06:13:25.055Z,17.00
2023-05-09T06:14:26.021Z,17.10
2023-05-09T06:15:26.052Z,17.06
2023-05-09T06:16:25.489Z,17.08
2023-05-09T06:17:25.624Z,17.04
2023-05-09T06:18:25.786Z,17.08
2023-05-09T06:19:25.913Z,17.03
2023-05-09T06:20:27.987Z,17.08
2023-05-09T06:21:26.982Z,17.07
2023-05-09T06:22:26.340Z,17.08
2023-05-09T06:23:26.562Z,17.07
2023-05-09T06:24:35.076Z,17.06
2023-05-09T06:25:29.517Z,17.10
2023-05-09T06:26:26.968Z,17.15
2023-05-09T06:27:27.084Z,17.14
2023-05-09T06:28:27.311Z,17.07
2023-05-09T06:29:27.565Z,17.15
2023-05-09T06:30:27.780Z,17.07
2023-05-09T06:31:27.945Z,17.06
2023-05-09T06:32:28.223Z,16.85
2023-05-09T06:33:29.991Z,16.89
2023-05-09T06:34:28.982Z,16.92
2023-05-09T06:35:28.602Z,16.88
2023-05-09T06:36:28.709Z,16.96
2023-05-09T06:37:28.943Z,16.80
2023-05-09T06:38:29.196Z,16.75
2023-05-09T06:39:29.427Z,16.78
2023-05-09T06:40:29.561Z,16.75
2023-05-09T06:41:30.521Z,16.78
2023-05-09T06:42:29.894Z,16.70
2023-05-09T06:43:30.064Z,16.75
2023-05-09T06:44:30.285Z,16.75
2023-05-09T06:45:30.451Z,16.74
2023-05-09T06:46:31.546Z,16.74
2023-05-09T06:47:30.859Z,16.93
2023-05-09T06:48:31.016Z,16.88
2023-05-09T06:49:31.176Z,16.83
2023-05-09T06:50:32.908Z,16.77
2023-05-09T06:51:32.452Z,16.75
2023-05-09T06:52:31.814Z,16.75
2023-05-09T06:53:33.493Z,17.00
2023-05-09T06:54:33.105Z,16.85
2023-05-09T06:55:33.019Z,16.77
2023-05-09T06:56:32.405Z,16.78
2023-05-09T06:57:32.565Z,16.83
2023-05-09T06:58:55.373Z,16.83
2023-05-09T06:59:33.490Z,16.80
2023-05-09T07:00:33.122Z,16.78
2023-05-09T07:01:34.008Z,16.88
2023-05-09T07:02:34.036Z,16.86
2023-05-09T07:03:33.554Z,16.88
2023-05-09T07:04:33.742Z,16.78
2023-05-09T07:05:34.107Z,16.80
2023-05-09T07:06:34.073Z,16.88
2023-05-09T07:07:34.992Z,16.88
2023-05-09T07:08:34.364Z,16.93
2023-05-09T07:09:34.515Z,16.89
2023-05-09T07:10:35.794Z,16.98
2023-05-09T07:11:35.581Z,16.93
2023-05-09T07:12:35.095Z,16.93
2023-05-09T07:13:36.042Z,16.92
2023-05-09T07:14:35.553Z,16.90
2023-05-09T07:15:42.202Z,16.95
2023-05-09T07:16:38.570Z,16.93
2023-05-09T07:17:39.042Z,16.85
2023-05-09T07:18:36.079Z,16.83
2023-05-09T07:19:36.296Z,16.96
2023-05-09T07:20:36.533Z,16.95
2023-05-09T07:21:38.499Z,16.98
2023-05-09T07:22:37.659Z,16.93
2023-05-09T07:23:37.912Z,16.96
2023-05-09T07:24:37.063Z,16.98
2023-05-09T07:25:37.197Z,16.93
2023-05-09T07:26:38.157Z,16.85
2023-05-09T07:27:37.489Z,16.90
2023-05-09T07:28:37.724Z,16.78
2023-05-09T07:29:38.071Z,16.85
2023-05-09T07:30:38.086Z,16.92
2023-05-09T07:31:38.374Z,16.95
2023-05-09T07:32:38.584Z,16.88
2023-05-09T07:33:38.739Z,16.78
2023-05-09T07:34:38.896Z,16.75
2023-05-09T07:35:39.041Z,16.81
2023-05-09T07:37:40.356Z,16.80
2023-05-09T07:38:40.511Z,16.92
2023-05-09T07:39:39.750Z,16.86
2023-05-09T07:40:39.898Z,16.93
2023-05-09T07:41:42.326Z,16.96
2023-05-09T07:42:41.011Z,17.03
2023-05-09T07:43:41.008Z,17.03
2023-05-09T07:44:40.513Z,17.03
2023-05-09T07:45:41.102Z,17.03
2023-05-09T07:46:41.542Z,17.08
2023-05-09T07:47:41.046Z,17.11
2023-05-09T07:48:42.502Z,17.03
2023-05-09T07:49:41.398Z,17.06
2023-05-09T07:50:41.572Z,17.18
2023-05-09T07:51:41.709Z,17.13
2023-05-09T07:52:41.859Z,17.13
2023-05-09T07:53:42.056Z,17.04
2023-05-09T07:54:42.317Z,17.00
2023-05-09T07:55:42.493Z,16.98
2023-05-09T07:56:42.771Z,16.93
2023-05-09T07:57:42.783Z,16.96
2023-05-09T07:58:43.512Z,16.96
2023-05-09T07:59:44.084Z,16.98
2023-05-09T08:00:43.334Z,16.93
2023-05-09T08:01:44.007Z,16.85
2023-05-09T08:02:43.776Z,16.96
2023-05-09T08:03:44.021Z,16.88
2023-05-09T08:04:44.559Z,16.95
2023-05-09T08:05:45.048Z,16.88
2023-05-09T08:06:45.891Z,16.88
2023-05-09T08:07:45.505Z,17.03
2023-05-09T08:08:46.889Z,17.10
2023-05-09T08:09:44.994Z,17.17
2023-05-09T08:10:46.059Z,17.20
2023-05-09T08:11:45.548Z,17.28
2023-05-09T08:12:45.596Z,17.23
2023-05-09T08:13:45.730Z,17.13
2023-05-09T08:14:46.070Z,17.17
2023-05-09T08:15:46.137Z,17.32
2023-05-09T08:16:46.305Z,17.41
2023-05-09T08:17:46.535Z,17.35
2023-05-09T08:18:46.629Z,17.46
2023-05-09T08:19:47.071Z,17.51
2023-05-09T08:20:46.965Z,17.59
2023-05-09T08:21:48.014Z,17.55
2023-05-09T08:22:47.269Z,17.50
2023-05-09T08:23:47.400Z,17.41
2023-05-09T08:24:47.561Z,17.40
2023-05-09T08:25:48.569Z,17.44
2023-05-09T08:26:48.637Z,17.54
2023-05-09T08:27:48.008Z,17.70
2023-05-09T08:28:50.519Z,17.67
2023-05-09T08:29:49.529Z,17.70
2023-05-09T08:30:49.095Z,17.55
2023-05-09T08:31:48.847Z,17.55
2023-05-09T08:32:49.569Z,17.46
2023-05-09T08:33:49.519Z,17.48
2023-05-09T08:34:50.020Z,17.53
2023-05-09T08:35:49.268Z,17.50
2023-05-09T08:36:49.405Z,17.40
2023-05-09T08:37:50.551Z,17.46
2023-05-09T08:38:52.462Z,17.43
2023-05-09T08:39:50.074Z,17.32
2023-05-09T08:40:50.105Z,17.38
2023-05-09T08:41:52.142Z,17.30
2023-05-09T08:42:50.491Z,17.43
2023-05-09T08:43:50.662Z,17.53
2023-05-09T08:44:51.084Z,17.48
2023-05-09T08:45:52.915Z,17.48
2023-05-09T08:46:51.228Z,17.50
2023-05-09T08:47:51.367Z,17.50
2023-05-09T08:48:51.578Z,17.44
2023-05-09T08:49:51.717Z,17.46
2023-05-09T08:50:52.563Z,17.47
2023-05-09T08:51:53.081Z,17.47
2023-05-09T08:52:53.077Z,17.50
2023-05-09T08:53:52.468Z,17.64
2023-05-09T08:54:52.648Z,17.67
2023-05-09T08:55:52.831Z,17.55
2023-05-09T08:56:53.527Z,17.57
2023-05-09T08:57:53.274Z,17.59
2023-05-09T08:58:53.287Z,17.54
2023-05-09T08:59:53.410Z,17.59
2023-05-09T09:00:53.562Z,17.64
2023-05-09T09:01:53.745Z,17.71
2023-05-09T09:02:54.020Z,17.59
2023-05-09T09:03:54.177Z,17.59
2023-05-09T09:04:54.291Z,17.66
2023-05-09T09:05:55.073Z,17.57
2023-05-09T09:06:54.641Z,17.59
2023-05-09T09:07:54.811Z,17.62
2023-05-09T09:08:55.089Z,17.67
2023-05-09T09:09:56.028Z,17.66
2023-05-09T09:10:56.543Z,17.63
2023-05-09T09:11:55.555Z,17.55
2023-05-09T09:12:55.845Z,17.55
2023-05-09T09:13:55.878Z,17.51
2023-05-09T09:14:56.547Z,17.53
2023-05-09T09:15:56.180Z,17.62
2023-05-09T09:16:56.338Z,17.66
2023-05-09T09:17:56.526Z,17.59
2023-05-09T09:18:58.939Z,17.67
2023-05-09T09:19:57.916Z,17.67
2023-05-09T09:20:57.137Z,17.76
2023-05-09T09:21:58.048Z,17.67
2023-05-09T09:22:57.521Z,17.84
2023-05-09T09:23:58.536Z,17.89
2023-05-09T09:24:58.086Z,17.97
2023-05-09T09:25:59.600Z,18.00
2023-05-09T09:26:59.194Z,18.04
2023-05-09T09:27:58.541Z,18.15
2023-05-09T09:28:58.545Z,18.21
2023-05-09T09:29:58.749Z,18.18
2023-05-09T09:30:59.604Z,18.25
2023-05-09T09:31:59.134Z,18.28
2023-05-09T09:33:00.127Z,18.49
2023-05-09T09:33:59.440Z,18.54
2023-05-09T09:34:59.618Z,18.44
2023-05-09T09:36:00.546Z,18.70
2023-05-09T09:36:59.945Z,18.67
2023-05-09T09:38:00.393Z,18.57
2023-05-09T09:39:00.223Z,18.40
2023-05-09T09:40:01.078Z,18.40
2023-05-09T09:41:00.616Z,18.28
2023-05-09T09:42:00.768Z,18.21
2023-05-09T09:43:01.671Z,18.10
2023-05-09T09:44:01.084Z,18.09
2023-05-09T09:45:01.295Z,17.89
2023-05-09T09:46:02.153Z,17.84
2023-05-09T09:47:01.716Z,17.78
2023-05-09T09:48:01.922Z,17.71
2023-05-09T09:49:03.999Z,17.71
2023-05-09T09:50:03.047Z,17.64
2023-05-09T09:51:02.549Z,17.71
2023-05-09T09:52:03.546Z,17.74
2023-05-09T09:53:03.954Z,17.73
2023-05-09T09:54:03.122Z,17.73
2023-05-09T09:55:03.310Z,17.63
2023-05-09T09:56:03.527Z,17.66
2023-05-09T09:57:03.707Z,17.69
2023-05-09T09:58:04.214Z,17.70
2023-05-09T09:59:05.550Z,17.81
2023-05-09T10:00:05.090Z,17.89
2023-05-09T10:01:04.561Z,17.91
2023-05-09T10:02:08.056Z,18.00
2023-05-09T10:03:06.672Z,18.04
2023-05-09T10:04:04.966Z,17.99
2023-05-09T10:05:05.164Z,18.04
2023-05-09T10:06:05.306Z,18.02
2023-05-09T10:07:05.511Z,18.10
2023-05-09T10:08:06.570Z,18.09
2023-05-09T10:09:05.828Z,18.09
2023-05-09T10:10:06.140Z,18.13
2023-05-09T10:11:06.173Z,18.19
2023-05-09T10:12:06.465Z,18.27
2023-05-09T10:13:07.267Z,18.43
2023-05-09T10:14:07.741Z,18.33
2023-05-09T10:15:07.870Z,18.37
2023-05-09T10:16:07.033Z,18.34
2023-05-09T10:17:07.223Z,18.22
2023-05-09T10:18:08.742Z,18.31
2023-05-09T10:19:08.182Z,18.13
2023-05-09T10:20:07.722Z,18.17
2023-05-09T10:21:08.556Z,18.13
2023-05-09T10:22:08.045Z,18.12
2023-05-09T10:23:08.228Z,18.10
2023-05-09T10:24:08.376Z,18.10
2023-05-09T10:25:09.126Z,18.18
2023-05-09T10:26:10.560Z,18.17
2023-05-09T10:27:09.603Z,18.15
2023-05-09T10:28:09.726Z,18.25
2023-05-09T10:29:09.341Z,18.33
2023-05-09T10:30:09.493Z,18.39
2023-05-09T10:31:09.661Z,18.50
2023-05-09T10:32:09.855Z,18.68
2023-05-09T10:33:10.062Z,18.83
2023-05-09T10:34:11.085Z,18.72
2023-05-09T10:35:11.056Z,18.87
2023-05-09T10:36:12.556Z,18.70
2023-05-09T10:37:10.906Z,18.74
2023-05-09T10:38:11.554Z,18.82
2023-05-09T10:39:12.063Z,18.76
2023-05-09T10:40:11.295Z,18.65
2023-05-09T10:41:11.433Z,18.73
2023-05-09T10:42:11.694Z,18.74
2023-05-09T10:43:11.945Z,18.67
2023-05-09T10:44:11.987Z,18.62
2023-05-09T10:45:12.161Z,18.46
2023-05-09T10:46:13.630Z,18.46
2023-05-09T10:47:13.057Z,18.44
2023-05-09T10:48:16.063Z,18.52
2023-05-09T10:49:12.977Z,18.65
2023-05-09T10:50:14.056Z,18.55
2023-05-09T10:51:13.318Z,18.64
2023-05-09T10:52:14.101Z,18.47
2023-05-09T10:53:13.706Z,18.52
2023-05-09T10:54:13.837Z,18.40
2023-05-09T10:55:14.194Z,18.33
2023-05-09T10:56:14.124Z,18.46
2023-05-09T10:57:14.262Z,18.47
2023-05-09T10:58:15.189Z,18.44
2023-05-09T10:59:14.531Z,18.39
2023-05-09T11:00:14.693Z,18.29
2023-05-09T11:01:15.811Z,18.28
2023-05-09T11:02:15.981Z,18.40
2023-05-09T11:03:15.795Z,18.49
2023-05-09T11:04:15.295Z,18.42
2023-05-09T11:05:17.291Z,18.44
2023-05-09T11:06:15.638Z,18.33
2023-05-09T11:07:15.812Z,18.28
2023-05-09T11:08:16.600Z,18.22
2023-05-09T11:09:17.574Z,18.19
2023-05-09T11:10:16.305Z,18.24
2023-05-09T11:11:17.069Z,18.21
2023-05-09T11:12:16.707Z,18.21
2023-05-09T11:13:16.852Z,18.12
2023-05-09T11:14:17.117Z,18.10
2023-05-09T11:15:17.203Z,18.03
2023-05-09T11:16:17.303Z,18.02
2023-05-09T11:17:17.461Z,17.97
2023-05-09T11:18:18.923Z,18.06
2023-05-09T11:19:17.768Z,18.07
2023-05-09T11:20:18.575Z,18.18
2023-05-09T11:21:18.201Z,18.33
2023-05-09T11:22:19.077Z,18.43
2023-05-09T11:23:18.467Z,18.52
2023-05-09T11:24:18.641Z,18.68
2023-05-09T11:25:18.771Z,18.68
2023-05-09T11:26:18.916Z,18.70
2023-05-09T11:27:19.102Z,18.82
2023-05-09T11:28:20.737Z,18.83
2023-05-09T11:29:21.205Z,18.83
2023-05-09T11:30:19.772Z,18.94
2023-05-09T11:31:21.640Z,18.99
2023-05-09T11:32:19.901Z,19.05
2023-05-09T11:33:20.076Z,19.05
2023-05-09T11:34:20.275Z,18.98
2023-05-09T11:35:20.432Z,18.86
2023-05-09T11:36:20.659Z,18.80
2023-05-09T11:37:20.756Z,18.90
2023-05-09T11:38:21.636Z,18.94
2023-05-09T11:39:21.027Z,19.01
2023-05-09T11:40:22.078Z,18.87
2023-05-09T11:41:21.357Z,18.87
2023-05-09T11:42:22.081Z,18.73
2023-05-09T11:43:21.720Z,18.79
2023-05-09T11:44:21.880Z,18.68
2023-05-09T11:45:22.113Z,18.82
2023-05-09T11:46:22.317Z,18.80
2023-05-09T11:47:23.202Z,18.74
2023-05-09T11:48:22.743Z,18.87
2023-05-09T11:49:22.884Z,18.83
2023-05-09T11:50:23.079Z,18.91
2023-05-09T11:51:24.148Z,18.94
2023-05-09T11:52:23.981Z,18.76
2023-05-09T11:53:24.595Z,18.80
2023-05-09T11:54:24.610Z,18.90
2023-05-09T11:55:24.012Z,18.99
2023-05-09T11:56:24.161Z,19.18
2023-05-09T11:57:24.362Z,19.29
2023-05-09T11:58:25.087Z,19.35
2023-05-09T11:59:24.720Z,19.48
2023-05-09T12:00:25.008Z,19.61
2023-05-09T12:01:26.643Z,19.57
2023-05-09T12:02:25.348Z,19.61
2023-05-09T12:03:25.682Z,19.58
2023-05-09T12:04:25.615Z,19.43
2023-05-09T12:05:26.600Z,19.39
2023-05-09T12:06:26.588Z,19.28
2023-05-09T12:07:26.655Z,19.36
2023-05-09T12:08:26.325Z,19.29
2023-05-09T12:09:27.593Z,19.35
2023-05-09T12:10:26.719Z,19.18
2023-05-09T12:11:27.631Z,19.25
2023-05-09T12:12:27.634Z,19.31
2023-05-09T12:13:27.403Z,19.38
2023-05-09T12:14:28.096Z,19.35
2023-05-09T12:15:28.749Z,19.36
2023-05-09T12:16:29.150Z,19.38
2023-05-09T12:17:28.011Z,19.61
2023-05-09T12:18:28.154Z,19.84
2023-05-09T12:19:28.209Z,19.97
2023-05-09T12:20:28.346Z,20.20
2023-05-09T12:21:29.093Z,20.08
2023-05-09T12:22:31.095Z,20.25
2023-05-09T12:23:29.597Z,20.27
2023-05-09T12:24:29.102Z,20.09
2023-05-09T12:25:29.235Z,19.94
2023-05-09T12:26:29.654Z,19.86
2023-05-09T12:27:30.145Z,19.73
2023-05-09T12:28:29.784Z,19.86
2023-05-09T12:29:30.647Z,19.80
2023-05-09T12:30:32.216Z,19.73
2023-05-09T12:31:30.703Z,19.75
2023-05-09T12:32:30.517Z,19.87
2023-05-09T12:33:30.624Z,19.87
2023-05-09T12:34:31.652Z,19.70
2023-05-09T12:35:31.004Z,19.70
2023-05-09T12:36:32.597Z,19.65
2023-05-09T12:37:32.097Z,19.69
2023-05-09T12:38:32.101Z,19.61
2023-05-09T12:39:31.742Z,19.54
2023-05-09T12:40:31.906Z,19.58
2023-05-09T12:41:39.221Z,19.76
2023-05-09T12:42:34.203Z,19.79
2023-05-09T12:43:32.321Z,19.95
2023-05-09T12:44:32.479Z,19.97
2023-05-09T12:45:33.657Z,20.00
2023-05-09T12:46:33.025Z,19.95
2023-05-09T12:47:33.050Z,20.06
2023-05-09T12:48:33.277Z,20.08
2023-05-09T12:49:33.450Z,20.08
2023-05-09T12:50:33.620Z,20.23
2023-05-09T12:51:33.814Z,20.42
2023-05-09T12:52:34.026Z,20.58
2023-05-09T12:53:34.235Z,20.54
2023-05-09T12:54:35.135Z,20.35
2023-05-09T12:55:34.638Z,20.43